Time;durP1;ratioP1;P1;durP2;ratioP2;P2;SDS_P1;SDS_P2;PMS_P1;PMS_P2;Temp;Humidity;BMP_temperature;BMP_pressure;BME280_temperature;BME280_humidity;BME280_pressure;Samples;Min_cycle;Max_cycle;Signal;HPM_P1;HPM_P2
2022/01/28 00:00:52;;;;;;;7.20;3.00;;;6.00;99.90;;;;;;6092436;23;20215;-81
2022/01/28 00:03:18;;;;;;;6.25;3.25;;;5.40;99.90;;;;;;6116386;23;20325;-80
2022/01/28 00:05:43;;;;;;;6.40;1.90;;;5.40;99.90;;;;;;6117803;23;20149;-80
2022/01/28 00:08:09;;;;;;;3.77;1.80;;;5.80;99.90;;;;;;6115742;23;20468;-81
2022/01/28 00:10:38;;;;;;;5.10;1.77;;;6.30;99.90;;;;;;6118226;23;20150;-81
2022/01/28 00:38:01;;;;;;;5.35;2.30;;;5.80;99.90;;;;;;6117668;23;20196;-80
2022/01/28 00:40:28;;;;;;;7.30;2.92;;;5.80;99.90;;;;;;6118008;23;20495;-80
2022/01/28 00:42:54;;;;;;;4.85;2.17;;;5.90;99.90;;;;;;6115561;23;20551;-79
2022/01/28 00:45:21;;;;;;;8.20;2.27;;;5.30;99.90;;;;;;6117715;23;20157;-80
2022/01/28 00:47:47;;;;;;;6.53;2.17;;;5.80;99.90;;;;;;6115704;23;20145;-79
2022/01/28 00:50:22;;;;;;;10.57;3.07;;;5.40;99.90;;;;;;6091726;23;20239;-81
2022/01/28 00:52:48;;;;;;;5.03;2.00;;;5.70;99.90;;;;;;6116036;23;20197;-81
2022/01/28 00:55:14;;;;;;;5.70;1.63;;;6.20;99.90;;;;;;6116544;23;20160;-81
2022/01/28 00:57:40;;;;;;;8.10;2.65;;;5.40;99.90;;;;;;6091971;23;20245;-81
2022/01/28 01:00:08;;;;;;;7.87;2.70;;;5.50;99.90;;;;;;6089633;23;20196;-81
2022/01/28 01:02:33;;;;;;;6.33;3.10;;;5.50;99.90;;;;;;6118884;23;20149;-81
2022/01/28 01:04:59;;;;;;;5.90;2.87;;;5.50;99.90;;;;;;6115341;23;20389;-80
2022/01/28 01:07:59;;;;;;;8.30;3.03;;;5.40;99.90;;;;;;6117597;23;20158;-81
2022/01/28 01:10:26;;;;;;;9.45;2.22;;;5.40;99.90;;;;;;6006177;23;20618;-81
2022/01/28 01:12:52;;;;;;;10.65;2.67;;;5.30;99.90;;;;;;6014958;23;20243;-81
2022/01/28 01:15:33;;;;;;;11.13;2.33;;;5.20;99.90;;;;;;6119683;23;20142;-81
2022/01/28 01:18:10;;;;;;;3.88;2.47;;;5.40;99.90;;;;;;6117839;23;20137;-81
2022/01/28 01:23:09;;;;;;;8.73;2.40;;;5.30;99.90;;;;;;6116528;23;20161;-80
2022/01/28 01:25:49;;;;;;;7.17;2.30;;;5.10;99.90;;;;;;6093161;23;20149;-81
2022/01/28 01:28:30;;;;;;;15.13;2.88;;;5.20;99.90;;;;;;6090155;23;20389;-83
2022/01/28 01:31:27;;;;;;;3.40;1.92;;;4.80;99.90;;;;;;6120660;23;20612;-83
2022/01/28 01:33:58;;;;;;;6.28;2.05;;;5.30;99.90;;;;;;6113230;23;20591;-80
2022/01/28 01:36:24;;;;;;;6.50;2.03;;;5.10;99.90;;;;;;6097013;23;20155;-80
2022/01/28 01:38:53;;;;;;;13.40;2.47;;;4.90;99.90;;;;;;6120571;23;20554;-82
2022/01/28 01:41:45;;;;;;;6.65;2.30;;;4.90;99.90;;;;;;6118829;23;20153;-80
2022/01/28 01:44:21;;;;;;;8.23;2.22;;;4.40;99.90;;;;;;6114102;23;20161;-80
2022/01/28 01:53:03;;;;;;;25.17;2.88;;;4.70;99.90;;;;;;6140347;23;20210;-91
2022/01/28 01:55:40;;;;;;;12.40;2.88;;;7.20;99.90;;;;;;6135914;23;20152;-89
2022/01/28 01:58:06;;;;;;;4.93;2.42;;;4.90;99.90;;;;;;6163244;23;20156;-90
2022/01/28 02:00:32;;;;;;;8.57;2.13;;;7.30;99.90;;;;;;6128508;23;20152;-91
2022/01/28 02:02:58;;;;;;;9.20;2.27;;;4.90;99.90;;;;;;6128023;23;20608;-90
2022/01/28 02:05:35;;;;;;;7.73;2.63;;;5.90;99.90;;;;;;6131313;23;20531;-90
2022/01/28 02:11:25;;;;;;;9.05;2.33;;;4.10;99.90;;;;;;6160887;23;20187;-90
2022/01/28 02:14:19;;;;;;;13.27;2.97;;;8.60;99.90;;;;;;6129198;23;20280;-91
2022/01/28 02:17:12;;;;;;;6.18;2.33;;;6.60;99.90;;;;;;6127437;23;20225;-91
2022/01/28 02:19:39;;;;;;;6.28;2.80;;;5.70;99.90;;;;;;6126589;23;20149;-90
2022/01/28 02:22:07;;;;;;;6.05;2.78;;;4.60;99.90;;;;;;6149702;23;20231;-91
2022/01/28 02:27:28;;;;;;;8.30;2.38;;;5.30;99.90;;;;;;6124845;23;20176;-91
2022/01/28 02:29:55;;;;;;;13.95;2.60;;;6.90;99.90;;;;;;6128147;23;20149;-90
2022/01/28 02:32:40;;;;;;;;;;;;;;;;;;;;;
2022/01/28 02:55:07;;;;;;;;;;;;;;;;;;;;;
2022/01/28 03:01:18;;;;;;;13.65;3.00;;;4.70;99.90;;;;;;6078123;23;20202;-90
2022/01/28 03:23:11;;;;;;;11.32;2.35;;;4.00;99.90;;;;;;5980204;23;20258;-91
2022/01/28 03:25:43;;;;;;;15.63;2.83;;;5.90;99.90;;;;;;6183201;23;20163;-91
2022/01/28 03:28:30;;;;;;;5.07;1.90;;;4.10;99.90;;;;;;6186188;23;20160;-91
2022/01/28 03:30:56;;;;;;;10.77;2.22;;;3.30;99.90;;;;;;6191269;23;20327;-91
2022/01/28 03:33:22;;;;;;;9.55;2.75;;;6.80;99.90;;;;;;6187087;23;20192;-91
2022/01/28 03:35:48;;;;;;;10.60;2.57;;;;;;;;;;6180154;23;20156;-91
2022/01/28 03:38:14;;;;;;;11.65;2.40;;;4.40;99.90;;;;;;6207984;23;20191;-91
2022/01/28 03:40:42;;;;;;;6.30;2.13;;;5.00;99.90;;;;;;6186875;23;20222;-91
2022/01/28 03:43:08;;;;;;;4.22;2.08;;;4.80;99.90;;;;;;6183319;23;20403;-91
2022/01/28 03:45:38;;;;;;;8.33;2.40;;;;;;;;;;6182982;23;20156;-91
2022/01/28 03:48:07;;;;;;;12.20;3.35;;;4.40;99.90;;;;;;6184559;23;20403;-90
2022/01/28 03:50:35;;;;;;;12.15;2.13;;;6.60;99.90;;;;;;6184933;23;20164;-91
2022/01/28 03:53:08;;;;;;;7.68;2.25;;;4.80;99.90;;;;;;6185391;23;20253;-92
2022/01/28 03:55:34;;;;;;;4.55;2.25;;;8.50;99.90;;;;;;6183490;23;20163;-91
2022/01/28 03:58:00;;;;;;;4.95;2.53;;;6.50;99.90;;;;;;6187929;23;20288;-90
2022/01/28 04:00:31;;;;;;;7.70;2.20;;;6.20;99.90;;;;;;6193891;23;20167;-92
2022/01/28 04:13:58;;;;;;;3.65;1.65;;;7.10;99.90;;;;;;6195991;23;20206;-91
2022/01/28 04:16:33;;;;;;;5.03;1.85;;;5.70;99.90;;;;;;6188817;23;20455;-91
2022/01/28 04:19:01;;;;;;;9.82;2.67;;;3.90;99.90;;;;;;6187050;23;20202;-91
2022/01/28 04:21:29;;;;;;;6.15;1.90;;;4.60;99.90;;;;;;6186921;23;20160;-90
2022/01/28 04:23:56;;;;;;;7.03;2.22;;;4.90;99.90;;;;;;6185717;23;20184;-91
2022/01/28 04:26:24;;;;;;;16.48;3.05;;;4.80;99.90;;;;;;6190723;23;20151;-91
2022/01/28 04:28:52;;;;;;;9.32;2.78;;;5.00;99.90;;;;;;6170087;23;20167;-91
2022/01/28 04:31:18;;;;;;;10.73;3.05;;;5.20;99.90;;;;;;6194755;23;20144;-90
2022/01/28 04:33:53;;;;;;;10.63;3.30;;;6.50;99.90;;;;;;6190244;23;20183;-90
2022/01/28 04:36:35;;;;;;;16.73;2.75;;;8.30;99.90;;;;;;6187498;23;20160;-91
2022/01/28 04:39:19;;;;;;;14.50;2.80;;;4.90;99.90;;;;;;6189454;23;20195;-92
2022/01/28 04:42:07;;;;;;;5.60;1.83;;;7.10;99.90;;;;;;6185680;23;20156;-92
2022/01/28 04:47:23;;;;;;;11.85;3.35;;;8.00;99.90;;;;;;6189484;23;20140;-92
2022/01/28 04:53:03;;;;;;;6.95;2.35;;;6.50;99.90;;;;;;6192419;23;20201;-91
2022/01/28 04:55:45;;;;;;;2.65;1.98;;;6.50;99.90;;;;;;6190214;23;20167;-91
2022/01/28 04:58:34;;;;;;;4.68;1.80;;;4.60;99.90;;;;;;6188343;23;20155;-91
2022/01/28 05:01:34;;;;;;;10.05;2.17;;;4.20;99.90;;;;;;6162694;23;20178;-91
2022/01/28 05:28:29;;;;;;;11.77;2.38;;;5.30;99.90;;;;;;6190293;23;20136;-92
2022/01/28 05:30:55;;;;;;;3.38;2.00;;;3.30;99.90;;;;;;6165352;23;20247;-91
2022/01/28 05:33:24;;;;;;;13.10;3.93;;;;;;;;;;6191426;23;20184;-91
2022/01/28 05:35:53;;;;;;;3.03;2.75;;;4.10;99.90;;;;;;6196358;23;20160;-92
2022/01/28 05:38:18;;;;;;;2.95;2.40;;;7.20;99.90;;;;;;6195637;23;20173;-91
2022/01/28 05:40:45;;;;;;;4.45;2.50;;;4.60;99.90;;;;;;6201226;23;20230;-91
2022/01/28 05:43:14;;;;;;;18.77;3.60;;;5.00;99.90;;;;;;6202103;23;20190;-90
2022/01/28 05:45:42;;;;;;;5.13;2.95;;;5.00;99.90;;;;;;6198846;23;20537;-91
2022/01/28 05:48:12;;;;;;;3.60;2.75;;;4.30;99.90;;;;;;6191726;23;20159;-91
2022/01/28 05:50:39;;;;;;;13.90;4.72;;;4.70;99.90;;;;;;6191280;23;20250;-92
2022/01/28 05:53:04;;;;;;;13.88;3.35;;;5.00;99.90;;;;;;6174759;23;20176;-91
2022/01/28 05:55:34;;;;;;;7.30;3.07;;;5.60;99.90;;;;;;6202071;23;20202;-91
2022/01/28 05:58:00;;;;;;;10.07;3.00;;;3.60;99.90;;;;;;6191761;23;20231;-91
2022/01/28 06:00:26;;;;;;;5.00;2.70;;;2.40;99.90;;;;;;6190496;23;20149;-92
2022/01/28 06:02:59;;;;;;;10.30;3.63;;;7.70;99.90;;;;;;6190979;23;20453;-91
2022/01/28 06:05:34;;;;;;;9.07;3.63;;;3.40;99.90;;;;;;6189439;23;20199;-91
2022/01/28 06:08:03;;;;;;;5.53;3.00;;;4.00;99.90;;;;;;6194497;23;20136;-91
2022/01/28 06:10:35;;;;;;;12.02;3.30;;;4.80;99.90;;;;;;6196462;23;20162;-91
2022/01/28 06:13:00;;;;;;;8.50;3.55;;;6.90;99.90;;;;;;6193676;23;20195;-90
2022/01/28 06:15:30;;;;;;;11.40;2.97;;;4.40;99.90;;;;;;6196631;23;20183;-90
2022/01/28 06:17:56;;;;;;;4.20;3.55;;;4.90;99.90;;;;;;6165665;23;20168;-91
2022/01/28 06:20:25;;;;;;;7.63;3.40;;;4.50;99.90;;;;;;6192404;23;20216;-90
2022/01/28 06:22:52;;;;;;;12.27;4.20;;;6.80;99.90;;;;;;6188144;23;20171;-91
2022/01/28 06:25:20;;;;;;;9.48;3.38;;;4.70;99.90;;;;;;6190616;23;20187;-91
2022/01/28 06:27:46;;;;;;;11.13;3.00;;;4.80;99.90;;;;;;6198120;23;20163;-89
2022/01/28 06:33:00;;;;;;;7.20;3.47;;;4.60;99.90;;;;;;6150541;22;20338;-90
2022/01/28 06:35:29;;;;;;;7.60;3.20;;;4.90;99.90;;;;;;6126717;23;20168;-87
2022/01/28 06:38:04;;;;;;;9.77;3.65;;;4.50;99.90;;;;;;6126158;23;20223;-90
2022/01/28 06:40:35;;;;;;;8.13;3.58;;;4.80;99.90;;;;;;6159540;23;20206;-89
2022/01/28 06:43:07;;;;;;;7.43;3.60;;;6.80;99.90;;;;;;6162380;23;20152;-86
2022/01/28 06:45:45;;;;;;;;;;;;;;;;;;;;;
2022/01/28 06:48:22;;;;;;;;;;;;;;;;;;;;;
2022/01/28 06:50:50;;;;;;;6.93;2.65;;;4.40;99.90;;;;;;6183225;23;20215;-91
2022/01/28 06:53:19;;;;;;;11.32;3.20;;;5.40;99.90;;;;;;6156359;23;20195;-89
2022/01/28 06:55:45;;;;;;;8.70;3.47;;;4.50;99.90;;;;;;6156462;23;20179;-89
2022/01/28 06:58:19;;;;;;;10.93;3.27;;;5.00;99.90;;;;;;6179745;23;20282;-89
2022/01/28 07:00:47;;;;;;;8.60;3.55;;;6.00;99.90;;;;;;6154371;23;20170;-87
2022/01/28 07:03:28;;;;;;;17.45;3.58;;;5.30;99.90;;;;;;6180696;23;20144;-89
2022/01/28 07:05:56;;;;;;;13.45;3.22;;;6.30;99.90;;;;;;6158142;23;20641;-89
2022/01/28 07:08:29;;;;;;;14.10;2.80;;;4.50;99.90;;;;;;6177763;23;20180;-89
2022/01/28 07:10:55;;;;;;;8.13;3.17;;;5.50;99.90;;;;;;6156350;23;20159;-90
2022/01/28 07:13:21;;;;;;;18.47;2.70;;;6.10;99.90;;;;;;6160199;23;20179;-90
2022/01/28 07:15:52;;;;;;;8.13;2.33;;;4.70;99.90;;;;;;6153748;23;20387;-88
2022/01/28 07:18:27;;;;;;;6.47;3.00;;;4.50;99.90;;;;;;6180824;23;20384;-90
2022/01/28 07:20:52;;;;;;;10.70;3.50;;;5.10;99.90;;;;;;6181562;23;20152;-91
2022/01/28 07:23:27;;;;;;;10.80;3.10;;;6.80;99.90;;;;;;6156157;23;20539;-90
2022/01/28 07:26:01;;;;;;;8.13;3.00;;;7.00;99.90;;;;;;6180109;23;20204;-88
2022/01/28 07:28:30;;;;;;;10.90;2.63;;;5.10;99.90;;;;;;6185368;23;20305;-90
2022/01/28 07:30:56;;;;;;;9.05;3.08;;;7.20;99.90;;;;;;6158127;23;20187;-90
2022/01/28 07:33:27;;;;;;;15.40;3.53;;;6.40;99.90;;;;;;6181661;23;20195;-90
2022/01/28 07:36:04;;;;;;;;;;;;;;;;;;;;;
2022/01/28 07:38:33;;;;;;;8.10;2.90;;;4.80;99.90;;;;;;6185744;23;20211;-90
2022/01/28 07:41:05;;;;;;;11.05;3.47;;;6.20;99.90;;;;;;6154287;23;20247;-89
2022/01/28 07:43:39;;;;;;;10.07;3.05;;;5.10;99.90;;;;;;6182877;23;20160;-89
2022/01/28 07:46:09;;;;;;;12.57;3.30;;;4.50;99.90;;;;;;6156938;23;20743;-88
2022/01/28 07:48:39;;;;;;;9.00;3.05;;;4.60;99.90;;;;;;6179011;23;20160;-87
2022/01/28 07:51:08;;;;;;;6.10;4.35;;;4.40;99.90;;;;;;6152360;23;20162;-89
2022/01/28 07:53:34;;;;;;;5.05;2.40;;;6.20;99.90;;;;;;6154542;23;20286;-88
2022/01/28 07:56:02;;;;;;;9.13;2.40;;;;;;;;;;6180506;23;20172;-91
2022/01/28 07:58:46;;;;;;;11.48;2.83;;;4.40;99.90;;;;;;6180755;23;20585;-89
2022/01/28 08:01:17;;;;;;;6.82;1.95;;;7.60;99.90;;;;;;6164160;23;20198;-91
2022/01/28 08:03:52;;;;;;;14.02;3.55;;;6.20;99.90;;;;;;6181803;23;20160;-87
2022/01/28 08:06:20;;;;;;;9.65;3.22;;;4.80;99.90;;;;;;6152336;23;20151;-88
2022/01/28 08:09:16;;;;;;;14.02;4.30;;;2.10;99.90;;;;;;6153689;23;20170;-88
2022/01/28 08:11:45;;;;;;;11.02;3.25;;;4.50;99.90;;;;;;6154937;23;20253;-88
2022/01/28 08:14:14;;;;;;;9.68;2.50;;;5.90;99.90;;;;;;6151199;23;20192;-89
2022/01/28 08:16:42;;;;;;;7.80;2.22;;;6.60;99.90;;;;;;6157315;23;20180;-89
2022/01/28 08:19:08;;;;;;;8.05;2.83;;;5.60;99.90;;;;;;6157685;23;20177;-89
2022/01/28 08:21:37;;;;;;;15.77;3.30;;;5.70;99.90;;;;;;6157663;23;20570;-88
2022/01/28 08:24:04;;;;;;;6.57;2.75;;;5.10;99.90;;;;;;6156002;23;20415;-89
2022/01/28 08:26:30;;;;;;;12.27;3.20;;;6.60;99.90;;;;;;6156084;23;20675;-87
2022/01/28 08:29:03;;;;;;;8.33;2.87;;;3.90;99.90;;;;;;6156424;23;20211;-87
2022/01/28 08:31:40;;;;;;;11.40;3.97;;;5.20;99.90;;;;;;6156940;23;20716;-89
2022/01/28 08:34:06;;;;;;;15.40;5.20;;;4.90;99.90;;;;;;6156311;23;20586;-90
2022/01/28 08:36:35;;;;;;;9.80;3.78;;;4.90;99.90;;;;;;6157112;23;20160;-88
2022/01/28 08:39:05;;;;;;;4.07;3.45;;;6.10;99.90;;;;;;6182869;23;20274;-90
2022/01/28 08:41:35;;;;;;;14.55;2.60;;;5.40;99.90;;;;;;6181829;23;20243;-89
2022/01/28 08:44:01;;;;;;;11.43;2.20;;;5.10;99.90;;;;;;6157115;23;20144;-87
2022/01/28 08:46:32;;;;;;;10.00;2.80;;;8.60;99.90;;;;;;6185523;23;20152;-89
2022/01/28 08:48:59;;;;;;;4.15;2.47;;;5.10;99.90;;;;;;6187527;23;20170;-88
2022/01/28 08:51:41;;;;;;;7.28;2.30;;;5.60;99.90;;;;;;6134607;23;20161;-90
2022/01/28 08:54:22;;;;;;;16.60;2.88;;;3.90;99.90;;;;;;6175043;23;20206;-89
2022/01/28 08:56:56;;;;;;;11.63;4.38;;;6.70;99.90;;;;;;6188409;23;20139;-88
2022/01/28 08:59:26;;;;;;;11.15;2.72;;;7.60;99.90;;;;;;6186975;23;20722;-87
2022/01/28 09:02:17;;;;;;;8.68;2.90;;;7.00;99.90;;;;;;6158899;23;20141;-90
2022/01/28 09:04:48;;;;;;;8.25;3.35;;;7.60;99.90;;;;;;6160209;23;20148;-91
2022/01/28 09:07:19;;;;;;;10.13;3.63;;;5.20;99.90;;;;;;6186204;23;20412;-85
2022/01/28 09:13:27;;;;;;;3.50;2.30;;;6.30;99.90;;;;;;6097674;23;20186;-88
2022/01/28 09:21:32;;;;;;;11.52;4.07;;;6.50;99.90;;;;;;6163354;23;20169;-88
2022/01/28 09:23:58;;;;;;;8.90;3.08;;;9.80;99.90;;;;;;6159325;23;20211;-84
2022/01/28 09:27:15;;;;;;;8.70;3.50;;;6.60;99.90;;;;;;6135310;23;20199;-89
2022/01/28 09:29:49;;;;;;;5.88;2.75;;;6.20;99.90;;;;;;6190660;23;20150;-88
2022/01/28 09:32:23;;;;;;;8.75;2.78;;;6.80;99.90;;;;;;6190722;23;20199;-89
2022/01/28 09:35:17;;;;;;;8.90;3.03;;;8.90;99.90;;;;;;6195898;23;20154;-91
2022/01/28 09:43:34;;;;;;;4.50;2.40;;;10.00;99.90;;;;;;6166453;23;20451;-88
2022/01/28 09:46:52;;;;;;;3.10;2.43;;;11.50;99.90;;;;;;6178764;23;20546;-89
2022/01/28 09:52:23;;;;;;;7.80;2.60;;;12.30;99.90;;;;;;6164525;23;20431;-90
2022/01/28 09:55:03;;;;;;;11.73;3.00;;;14.00;99.90;;;;;;6104821;23;20401;-90
2022/01/28 09:57:37;;;;;;;2.63;2.43;;;13.00;99.90;;;;;;6112143;23;20452;-87
2022/01/28 10:00:13;;;;;;;6.17;2.70;;;13.40;99.90;;;;;;6110760;23;20413;-87
2022/01/28 10:06:04;;;;;;;7.10;3.07;;;13.80;99.90;;;;;;6146300;23;20460;-88
2022/01/28 10:08:37;;;;;;;8.27;3.90;;;10.60;99.90;;;;;;6139756;23;20394;-85
2022/01/28 10:11:15;;;;;;;6.67;3.30;;;10.80;99.90;;;;;;6143445;23;20393;-90
2022/01/28 10:18:05;;;;;;;8.43;3.90;;;9.80;99.90;;;;;;6158739;22;20481;-91
2022/01/28 10:23:27;;;;;;;6.97;3.27;;;11.20;99.90;;;;;;6009088;22;3722310;-87
2022/01/28 10:26:19;;;;;;;12.93;4.00;;;12.30;99.90;;;;;;6146332;23;20373;-88
2022/01/28 10:29:01;;;;;;;11.27;3.43;;;12.50;99.90;;;;;;6168574;23;20365;-88
2022/01/28 10:31:42;;;;;;;8.23;4.07;;;12.70;99.90;;;;;;6169486;23;20441;-88
2022/01/28 10:34:34;;;;;;;4.67;3.30;;;13.70;99.90;;;;;;6142930;23;20471;-86
2022/01/28 10:37:46;;;;;;;9.37;3.80;;;13.80;99.90;;;;;;6145504;23;20391;-86
2022/01/28 10:40:17;;;;;;;13.77;4.70;;;17.10;99.90;;;;;;6138418;23;20376;-89
2022/01/28 10:42:50;;;;;;;7.63;3.07;;;14.50;99.90;;;;;;6144455;23;20420;-88
2022/01/28 10:45:24;;;;;;;11.27;3.03;;;12.60;99.90;;;;;;6136556;23;20387;-86
2022/01/28 10:48:01;;;;;;;8.70;3.23;;;12.20;99.90;;;;;;6167300;23;20876;-88
2022/01/28 10:50:33;;;;;;;8.17;2.70;;;12.20;99.90;;;;;;6169335;23;20379;-87
2022/01/28 10:53:04;;;;;;;11.50;3.40;;;13.90;99.90;;;;;;6168577;23;20466;-89
2022/01/28 10:56:05;;;;;;;12.53;3.03;;;10.70;99.90;;;;;;6145148;23;20416;-86
2022/01/28 11:01:47;;;;;;;18.33;3.28;;;9.80;99.90;;;;;;6144640;23;20454;-92
2022/01/28 11:05:13;;;;;;;8.77;3.00;;;9.70;99.90;;;;;;6159150;23;20667;-92
2022/01/28 11:08:44;;;;;;;7.70;3.33;;;10.00;99.90;;;;;;6158492;23;20403;-92
2022/01/28 11:12:11;;;;;;;9.33;2.83;;;11.40;99.90;;;;;;6166392;23;20384;-90
2022/01/28 11:14:57;;;;;;;5.33;2.40;;;13.00;99.90;;;;;;6170028;23;20400;-89
2022/01/28 11:17:23;;;;;;;4.03;2.37;;;15.40;99.90;;;;;;6140933;23;20681;-90
2022/01/28 11:19:53;;;;;;;8.73;3.33;;;;;;;;;;6138276;23;20942;-90
2022/01/28 11:22:28;;;;;;;11.53;2.80;;;14.60;97.90;;;;;;6137509;23;20399;-92
2022/01/28 11:25:14;;;;;;;5.07;3.40;;;14.90;93.40;;;;;;6130888;23;20427;-90
2022/01/28 11:27:47;;;;;;;12.10;4.30;;;14.20;94.90;;;;;;6155735;23;20738;-90
2022/01/28 11:30:25;;;;;;;13.33;3.60;;;13.00;99.90;;;;;;6134817;23;20407;-91
2022/01/28 11:33:00;;;;;;;7.10;2.50;;;12.90;99.90;;;;;;6127797;23;20424;-94
2022/01/28 11:35:46;;;;;;;7.97;2.30;;;14.10;99.90;;;;;;6127788;23;20395;-91
2022/01/28 11:38:27;;;;;;;7.07;3.23;;;14.20;99.90;;;;;;6152110;23;20357;-91
2022/01/28 11:40:57;;;;;;;5.83;2.83;;;13.10;99.90;;;;;;6124922;23;20778;-89
2022/01/28 11:43:44;;;;;;;7.83;3.20;;;13.50;99.90;;;;;;6127842;23;20432;-92
2022/01/28 11:46:24;;;;;;;6.30;2.53;;;13.50;99.90;;;;;;6134560;23;20435;-90
2022/01/28 11:48:55;;;;;;;9.87;2.80;;;13.40;99.30;;;;;;6163904;23;20364;-90
2022/01/28 11:51:32;;;;;;;2.63;2.43;;;14.00;97.90;;;;;;6146083;23;20423;-91
2022/01/28 11:54:24;;;;;;;8.17;2.57;;;16.60;95.10;;;;;;6180598;23;20496;-89
2022/01/28 11:57:01;;;;;;;15.57;7.00;;;14.10;93.30;;;;;;6194742;23;20383;-88
2022/01/28 11:59:38;;;;;;;11.37;3.10;;;14.30;94.40;;;;;;6203739;23;20418;-90
2022/01/28 12:02:18;;;;;;;7.93;3.30;;;14.60;92.20;;;;;;6203753;23;20368;-89
2022/01/28 12:04:55;;;;;;;6.93;3.07;;;13.60;95.30;;;;;;6201563;23;20482;-90
2022/01/28 12:07:23;;;;;;;11.43;3.63;;;14.70;97.50;;;;;;6198695;23;20386;-86
2022/01/28 12:10:15;;;;;;;13.00;3.13;;;13.10;97.50;;;;;;6203787;23;20812;-88
2022/01/28 12:13:06;;;;;;;10.53;3.17;;;12.60;99.90;;;;;;6157727;23;20410;-91
2022/01/28 12:18:54;;;;;;;10.83;3.80;;;14.50;99.80;;;;;;6109195;23;20390;-89
2022/01/28 12:21:40;;;;;;;11.00;4.63;;;14.20;97.20;;;;;;6082840;23;20398;-90
2022/01/28 12:24:22;;;;;;;9.93;4.03;;;15.00;93.40;;;;;;6193958;23;20402;-88
2022/01/28 12:27:35;;;;;;;11.60;4.47;;;15.20;93.20;;;;;;6189576;23;20422;-83
2022/01/28 12:30:35;;;;;;;8.30;4.37;;;15.00;90.60;;;;;;6198861;23;20406;-90
2022/01/28 12:33:26;;;;;;;12.63;4.10;;;16.20;91.80;;;;;;6199395;23;20423;-87
2022/01/28 12:35:57;;;;;;;20.90;4.67;;;14.80;91.60;;;;;;6190761;23;20379;-89
2022/01/28 12:38:54;;;;;;;13.77;4.70;;;14.00;90.40;;;;;;6190663;23;20427;-90
2022/01/28 12:41:23;;;;;;;10.60;4.50;;;13.40;94.50;;;;;;6189370;23;20414;-87
2022/01/28 12:44:14;;;;;;;12.40;4.60;;;12.90;99.90;;;;;;6192024;23;20391;-88
2022/01/28 12:46:44;;;;;;;14.93;4.90;;;13.30;97.70;;;;;;6194329;23;20392;-85
2022/01/28 12:49:10;;;;;;;12.40;4.07;;;12.50;99.30;;;;;;6180452;23;20419;-83
2022/01/28 12:51:38;;;;;;;10.30;4.70;;;12.20;99.20;;;;;;6176319;23;20407;-85
2022/01/28 12:54:05;;;;;;;16.93;3.90;;;12.10;99.90;;;;;;6175290;23;20435;-82
2022/01/28 12:56:32;;;;;;;11.23;3.57;;;11.90;99.00;;;;;;6177900;23;20694;-86
2022/01/28 12:58:59;;;;;;;10.93;3.90;;;13.10;99.60;;;;;;6173262;23;20418;-87
2022/01/28 13:01:25;;;;;;;14.73;5.17;;;13.40;98.50;;;;;;6173498;23;20677;-85
2022/01/28 13:04:04;;;;;;;9.20;3.03;;;12.60;99.90;;;;;;6174299;23;21087;-85
2022/01/28 13:09:24;;;;;;;13.50;4.50;;;12.20;97.10;;;;;;6199910;23;20394;-84
2022/01/28 13:12:20;;;;;;;16.03;3.77;;;13.80;99.70;;;;;;6192508;23;20360;-84
2022/01/28 13:14:48;;;;;;;10.63;3.30;;;10.90;98.80;;;;;;6190695;23;20423;-88
2022/01/28 13:17:21;;;;;;;10.97;3.63;;;13.80;99.90;;;;;;6187839;23;20465;-86
2022/01/28 13:20:09;;;;;;;9.73;3.47;;;11.90;99.90;;;;;;6184390;23;20371;-89
2022/01/28 13:22:37;;;;;;;7.83;3.10;;;12.30;99.10;;;;;;6190518;23;20399;-89
2022/01/28 13:25:17;;;;;;;10.73;3.40;;;14.80;99.90;;;;;;6191426;23;20740;-88
2022/01/28 13:27:52;;;;;;;3.00;2.30;;;12.60;99.60;;;;;;6186073;23;20387;-86
2022/01/28 13:30:47;;;;;;;;;;;;;;;;;;;;;
2022/01/28 13:33:31;;;;;;;7.43;3.60;;;12.40;99.90;;;;;;6187924;23;20466;-89
2022/01/28 13:36:04;;;;;;;8.40;2.13;;;10.80;98.80;;;;;;6183213;23;20434;-88
2022/01/28 13:38:54;;;;;;;9.13;2.70;;;13.30;99.90;;;;;;6182810;23;20379;-86
2022/01/28 13:41:24;;;;;;;8.90;2.43;;;11.20;99.90;;;;;;6179941;23;20359;-87
2022/01/28 13:43:50;;;;;;;6.20;2.10;;;12.40;99.90;;;;;;6181442;23;20375;-87
2022/01/28 13:46:16;;;;;;;8.93;2.40;;;14.10;99.90;;;;;;6180167;23;20392;-88
2022/01/28 13:48:45;;;;;;;4.37;2.50;;;11.60;99.90;;;;;;6186437;23;20371;-87
2022/01/28 13:51:16;;;;;;;7.70;3.07;;;13.10;99.90;;;;;;6186239;23;20230;-85
2022/01/28 13:56:38;;;;;;;13.02;3.05;;;9.70;99.90;;;;;;6193431;23;20443;-88
2022/01/28 13:59:15;;;;;;;5.17;2.67;;;10.20;99.90;;;;;;6198755;23;20139;-89
2022/01/28 14:08:13;;;;;;;8.93;3.10;;;9.50;99.90;;;;;;6164537;23;20199;-85
2022/01/28 14:10:48;;;;;;;11.60;3.13;;;9.60;99.90;;;;;;6143142;23;20158;-87
2022/01/28 14:13:23;;;;;;;8.68;2.75;;;10.20;99.90;;;;;;6131776;23;20827;-85
2022/01/28 14:16:12;;;;;;;5.60;2.50;;;10.60;99.90;;;;;;6155781;23;20496;-86
2022/01/28 14:18:35;;;;;;;7.63;2.60;;;8.20;99.90;;;;;;6157328;23;20468;-83
2022/01/28 14:21:16;;;;;;;6.70;3.00;;;7.90;99.90;;;;;;6154838;23;20164;-86
2022/01/28 14:23:49;;;;;;;15.83;3.37;;;9.60;99.90;;;;;;6122985;23;20256;-87
2022/01/28 14:26:19;;;;;;;10.77;3.58;;;7.60;99.90;;;;;;6137859;23;20432;-87
2022/01/28 14:31:58;;;;;;;10.30;2.47;;;8.10;99.90;;;;;;6053605;23;20547;-85
2022/01/28 14:34:26;;;;;;;5.30;2.73;;;11.50;99.90;;;;;;6050189;23;20432;-84
2022/01/28 14:37:13;;;;;;;4.17;2.67;;;11.00;99.90;;;;;;6046387;23;20499;-86
2022/01/28 14:40:06;;;;;;;4.77;2.37;;;11.10;99.90;;;;;;6054463;23;20406;-85
2022/01/28 14:42:39;;;;;;;3.80;1.90;;;10.10;99.90;;;;;;6094184;23;20460;-86
2022/01/28 14:45:17;;;;;;;17.63;11.00;;;12.40;99.90;;;;;;6137405;23;20413;-86
2022/01/28 14:47:46;;;;;;;6.15;2.35;;;9.90;99.90;;;;;;6133747;23;20156;-83
2022/01/28 14:50:12;;;;;;;5.17;2.67;;;8.40;99.90;;;;;;6133985;23;20265;-86
2022/01/28 14:56:01;;;;;;;4.32;2.30;;;8.90;99.90;;;;;;6141231;23;20373;-87
2022/01/28 14:59:02;;;;;;;8.80;2.40;;;9.60;99.90;;;;;;6138430;23;20376;-87
2022/01/28 15:01:56;;;;;;;21.02;3.05;;;11.10;99.90;;;;;;6142689;23;20251;-87
2022/01/28 15:06:51;;;;;;;7.93;2.10;;;8.50;99.90;;;;;;6168724;23;20204;-84
2022/01/28 15:12:38;;;;;;;8.48;3.25;;;8.90;99.90;;;;;;6154470;23;20214;-88
2022/01/28 15:15:28;;;;;;;2.40;1.85;;;7.20;99.90;;;;;;6141527;23;20153;-90
2022/01/28 15:21:25;;;;;;;4.30;1.92;;;11.00;99.90;;;;;;6167793;22;20257;-92
2022/01/28 15:24:53;;;;;;;6.75;2.72;;;13.50;99.90;;;;;;6170395;23;20165;-94
2022/01/28 15:28:21;;;;;;;8.57;3.00;;;8.40;99.90;;;;;;6172294;23;20145;-93
2022/01/28 15:38:33;;;;;;;12.05;2.58;;;8.70;99.90;;;;;;6171302;23;20140;-93
2022/01/28 15:41:39;;;;;;;17.67;2.78;;;9.70;99.90;;;;;;6149903;23;20173;-92
2022/01/28 15:45:07;;;;;;;12.88;3.05;;;9.10;99.90;;;;;;6174280;23;20165;-90
2022/01/28 15:48:37;;;;;;;4.47;2.28;;;6.70;99.90;;;;;;6174104;23;20161;-93
2022/01/28 15:52:03;;;;;;;14.63;2.83;;;7.70;99.90;;;;;;6170388;23;20185;-92
2022/01/28 16:01:24;;;;;;;9.13;3.83;;;7.50;99.90;;;;;;6150608;23;20668;-86
2022/01/28 16:04:02;;;;;;;8.02;3.65;;;8.60;99.90;;;;;;6138366;23;20144;-85
2022/01/28 16:06:59;;;;;;;8.35;4.20;;;7.90;99.90;;;;;;6138822;23;20144;-89
2022/01/28 16:09:48;;;;;;;;;;;;;;;;;;;;;
2022/01/28 16:18:26;;;;;;;;;;;;;;;;;;;;;
2022/01/28 16:21:19;;;;;;;;;;;;;;;;;;;;;
2022/01/28 16:24:30;;;;;;;6.30;3.40;;;8.20;99.90;;;;;;6167493;23;20609;-90
2022/01/28 16:26:59;;;;;;;18.10;9.48;;;7.50;99.90;;;;;;6118411;23;20153;-87
2022/01/28 16:29:51;;;;;;;6.07;3.80;;;10.30;99.90;;;;;;6169742;23;20160;-90
2022/01/28 16:32:27;;;;;;;5.70;3.20;;;7.30;99.90;;;;;;6172906;23;20189;-87
2022/01/28 16:34:58;;;;;;;4.37;3.70;;;6.20;99.90;;;;;;6146874;23;20248;-87
2022/01/28 16:37:29;;;;;;;21.85;7.65;;;11.00;99.90;;;;;;6169340;23;20365;-88
2022/01/28 16:40:10;;;;;;;;;;;;;;;;;;;;;
2022/01/28 16:43:04;;;;;;;;;;;;;;;;;;;;;
2022/01/28 16:45:33;;;;;;;6.75;3.85;;;9.70;99.90;;;;;;6168078;23;20164;-87
2022/01/28 16:51:22;;;;;;;5.63;4.13;;;7.10;99.90;;;;;;6130434;23;20196;-90
2022/01/28 16:54:50;;;;;;;11.80;4.53;;;5.00;99.90;;;;;;6125175;23;20500;-90
2022/01/28 16:58:17;;;;;;;10.45;4.70;;;8.90;99.90;;;;;;6130224;23;20169;-88
2022/01/28 17:01:43;;;;;;;7.05;4.30;;;6.60;99.90;;;;;;6129626;23;20227;-92
2022/01/28 17:05:08;;;;;;;18.52;10.13;;;5.90;99.90;;;;;;6127496;23;20162;-90
2022/01/28 17:08:34;;;;;;;10.10;5.05;;;6.80;99.90;;;;;;6127000;23;20165;-90
2022/01/28 17:15:30;;;;;;;10.15;5.13;;;6.70;99.90;;;;;;6072030;23;20668;-88
2022/01/28 17:18:56;;;;;;;12.40;5.97;;;6.80;99.90;;;;;;6119185;23;20170;-86
2022/01/28 17:22:21;;;;;;;12.65;7.22;;;6.80;99.90;;;;;;6118283;23;20576;-89
2022/01/28 17:25:47;;;;;;;8.75;6.63;;;6.80;99.90;;;;;;6118885;23;20179;-87
2022/01/28 17:29:13;;;;;;;15.40;6.70;;;6.70;99.90;;;;;;6127217;23;20546;-87
2022/01/28 17:32:39;;;;;;;13.27;7.38;;;6.10;99.90;;;;;;6119440;23;20808;-88
2022/01/28 17:36:04;;;;;;;21.33;8.80;;;6.70;99.90;;;;;;6116936;23;20695;-89